createdAt,value
2022-08-09T00:00:20.587Z,34.30
2022-08-09T00:06:18.782Z,34.40
2022-08-09T00:11:24.367Z,34.40
2022-08-09T00:16:45.680Z,34.50
2022-08-09T00:22:07.903Z,34.50
2022-08-09T00:27:31.587Z,34.50
2022-08-09T00:32:56.240Z,34.60
2022-08-09T00:38:21.386Z,34.60
2022-08-09T00:44:15.932Z,34.60
2022-08-09T00:49:21.609Z,34.70
2022-08-09T00:54:41.576Z,34.80
2022-08-09T01:00:05.453Z,34.80
2022-08-09T01:05:53.150Z,34.90
2022-08-09T01:11:15.035Z,34.90
2022-08-09T01:16:35.370Z,35.00
2022-08-09T01:21:56.172Z,35.10
2022-08-09T01:27:20.131Z,35.10
2022-08-09T01:32:46.060Z,35.10
2022-08-09T01:38:10.169Z,35.20
2022-08-09T01:43:41.927Z,35.10
2022-08-09T01:49:12.718Z,35.20
2022-08-09T01:54:34.895Z,35.30
2022-08-09T02:00:00.144Z,35.30
2022-08-09T02:05:38.115Z,35.20
2022-08-09T02:11:17.096Z,35.30
2022-08-09T02:16:52.867Z,35.40
2022-08-09T02:22:19.220Z,35.40
2022-08-09T02:28:00.184Z,35.50
2022-08-09T02:33:37.681Z,35.60
2022-08-09T02:38:58.718Z,35.60
2022-08-09T02:44:29.050Z,35.70
2022-08-09T02:50:01.170Z,35.60
2022-08-09T02:55:22.266Z,35.60
2022-08-09T03:00:58.012Z,35.80
2022-08-09T03:06:18.619Z,35.70
2022-08-09T03:12:05.874Z,35.80
2022-08-09T03:17:26.932Z,35.90
2022-08-09T03:22:57.100Z,35.80
2022-08-09T03:28:18.139Z,35.90
2022-08-09T03:33:53.379Z,35.90
2022-08-09T03:39:15.056Z,36.00
2022-08-09T03:44:36.756Z,36.00
2022-08-09T03:49:58.218Z,36.10
2022-08-09T03:55:19.114Z,36.20
2022-08-09T04:00:41.725Z,36.20
2022-08-09T04:06:04.504Z,36.40
2022-08-09T04:11:24.932Z,36.20
2022-08-09T04:16:44.989Z,36.30
2022-08-09T04:22:05.113Z,36.40
2022-08-09T04:27:33.255Z,36.80
2022-08-09T04:32:57.793Z,36.60
2022-08-09T04:38:17.885Z,36.70
2022-08-09T04:43:38.452Z,36.80
2022-08-09T04:49:14.859Z,36.70
2022-08-09T04:54:34.882Z,37.00
2022-08-09T04:59:55.016Z,37.00
2022-08-09T05:05:15.050Z,37.20
2022-08-09T05:10:51.823Z,37.00
2022-08-09T05:16:11.914Z,36.90
2022-08-09T05:21:46.624Z,37.00
2022-08-09T05:27:07.694Z,37.00
2022-08-09T05:32:30.060Z,37.00
2022-08-09T05:37:50.323Z,37.10
2022-08-09T05:43:10.500Z,37.20
2022-08-09T05:48:33.192Z,37.40
2022-08-09T05:53:57.414Z,37.50
2022-08-09T05:59:18.072Z,37.70
2022-08-09T06:04:44.549Z,37.60
2022-08-09T06:10:06.330Z,37.80
2022-08-09T06:15:35.980Z,37.60
2022-08-09T06:20:57.148Z,37.60
2022-08-09T06:26:21.062Z,37.70
2022-08-09T06:32:08.794Z,37.70
2022-08-09T06:37:21.835Z,37.70
2022-08-09T06:42:49.059Z,37.90
2022-08-09T06:48:09.243Z,38.20
2022-08-09T06:53:38.473Z,38.10
2022-08-09T07:00:52.617Z,38.00
2022-08-09T07:04:38.579Z,37.70
2022-08-09T07:10:17.970Z,37.70
2022-08-09T07:16:35.258Z,37.70
2022-08-09T07:21:20.523Z,37.60
2022-08-09T07:26:40.588Z,37.70
2022-08-09T07:32:01.280Z,38.00
2022-08-09T07:37:21.428Z,38.20
2022-08-09T07:42:42.214Z,38.40
2022-08-09T07:48:04.608Z,38.40
2022-08-09T07:53:36.537Z,38.40
2022-08-09T07:59:12.545Z,38.30
2022-08-09T08:04:36.024Z,38.30
2022-08-09T08:10:08.402Z,38.20
2022-08-09T08:15:37.505Z,38.30
2022-08-09T08:20:57.890Z,38.10
2022-08-09T08:26:18.959Z,38.20
2022-08-09T08:32:03.297Z,38.40
2022-08-09T08:37:26.272Z,38.40
2022-08-09T08:43:02.056Z,38.60
2022-08-09T08:48:22.117Z,38.60
2022-08-09T08:54:03.790Z,38.60
2022-08-09T08:59:44.436Z,38.20
2022-08-09T09:05:06.210Z,38.30
2022-08-09T09:10:31.911Z,38.20
2022-08-09T09:15:52.245Z,38.30
2022-08-09T09:21:13.365Z,38.30
2022-08-09T09:26:33.995Z,38.20
2022-08-09T09:32:06.632Z,38.20
2022-08-09T09:37:33.873Z,38.30
2022-08-09T09:42:56.131Z,38.00
2022-08-09T09:48:16.770Z,38.00
2022-08-09T09:53:57.862Z,37.40
2022-08-09T09:59:17.362Z,37.40
2022-08-09T10:04:39.102Z,37.20
2022-08-09T10:09:59.263Z,36.90
2022-08-09T10:15:51.035Z,36.60
2022-08-09T10:21:03.630Z,36.80
2022-08-09T10:26:26.851Z,36.50
2022-08-09T10:37:27.138Z,36.20
2022-08-09T10:42:47.373Z,35.90
2022-08-09T10:48:29.600Z,35.60
2022-08-09T10:53:54.520Z,35.60
2022-08-09T10:59:15.040Z,35.70
2022-08-09T11:04:55.587Z,35.50
2022-08-09T11:10:15.906Z,35.40
2022-08-09T11:15:38.498Z,35.10
2022-08-09T11:21:11.296Z,34.90
2022-08-09T11:26:31.508Z,35.00
2022-08-09T11:31:52.803Z,34.90
2022-08-09T11:37:17.886Z,34.90
2022-08-09T11:42:38.758Z,34.90
2022-08-09T11:48:03.513Z,34.60
2022-08-09T11:54:01.231Z,34.60
2022-08-09T11:59:08.296Z,34.30
2022-08-09T12:04:37.185Z,34.00
2022-08-09T12:09:57.560Z,34.00
2022-08-09T12:15:49.568Z,33.80
2022-08-09T12:21:02.474Z,33.60
2022-08-09T12:26:25.633Z,33.60
2022-08-09T12:31:59.150Z,33.40
2022-08-09T12:37:29.263Z,33.20
2022-08-09T12:42:50.449Z,33.20
2022-08-09T12:48:30.900Z,33.00
2022-08-09T12:53:52.800Z,32.90
2022-08-09T12:59:15.216Z,32.90
2022-08-09T13:04:37.040Z,33.00
2022-08-09T13:10:01.208Z,33.10
2022-08-09T13:15:21.683Z,33.00
2022-08-09T13:21:04.321Z,33.00
2022-08-09T13:26:21.869Z,32.90
2022-08-09T13:32:19.049Z,32.70
2022-08-09T13:37:52.450Z,32.30
2022-08-09T13:43:15.963Z,32.30
2022-08-09T13:48:38.903Z,32.30
2022-08-09T13:54:02.436Z,32.30
2022-08-09T13:59:25.286Z,32.10
2022-08-09T14:04:59.393Z,32.10
2022-08-09T14:10:37.447Z,31.90
2022-08-09T14:16:06.530Z,31.70
2022-08-09T14:21:32.100Z,31.70
2022-08-09T14:26:52.212Z,31.70
2022-08-09T14:32:16.374Z,31.60
2022-08-09T14:38:01.503Z,31.60
2022-08-09T14:43:20.028Z,31.20
2022-08-09T14:48:40.201Z,31.10
2022-08-09T14:54:00.145Z,30.90
2022-08-09T14:59:21.174Z,30.80
2022-08-09T15:04:41.356Z,30.90
2022-08-09T15:10:07.521Z,30.80
2022-08-09T15:15:34.474Z,30.90
2022-08-09T15:21:58.696Z,30.80
2022-08-09T15:26:45.194Z,30.60
2022-08-09T15:32:29.427Z,30.60
2022-08-09T15:37:57.012Z,30.50
2022-08-09T15:43:29.922Z,30.50
2022-08-09T15:49:22.681Z,30.70
2022-08-09T15:54:49.166Z,30.70
2022-08-09T16:00:14.292Z,30.40
2022-08-09T16:05:47.429Z,30.50
2022-08-09T16:11:14.689Z,30.40
2022-08-09T16:16:37.185Z,30.30
2022-08-09T16:21:57.920Z,30.50
2022-08-09T16:27:18.080Z,30.40
2022-08-09T16:32:38.198Z,30.60
2022-08-09T16:38:03.532Z,30.40
2022-08-09T16:43:23.688Z,30.60
2022-08-09T16:48:53.217Z,30.50
2022-08-09T16:54:28.285Z,30.50
2022-08-09T16:59:57.810Z,30.70
2022-08-09T17:05:19.720Z,30.40
2022-08-09T17:10:40.354Z,30.50
2022-08-09T17:16:02.788Z,30.60
2022-08-09T17:21:22.890Z,30.70
2022-08-09T17:26:47.792Z,30.70
2022-08-09T17:32:15.775Z,30.70
2022-08-09T17:38:12.577Z,30.70
2022-08-09T17:43:33.454Z,30.60
2022-08-09T17:48:55.653Z,30.50
2022-08-09T17:54:18.926Z,30.50
2022-08-09T17:59:45.607Z,30.50
2022-08-09T18:05:20.784Z,30.50
2022-08-09T18:10:45.957Z,30.50
2022-08-09T18:16:16.317Z,30.40
2022-08-09T18:21:41.339Z,30.50
2022-08-09T18:27:01.966Z,30.50
2022-08-09T18:32:23.504Z,30.70
2022-08-09T18:37:47.362Z,30.60
2022-08-09T18:43:09.319Z,30.60
2022-08-09T18:48:30.457Z,30.50
2022-08-09T18:54:00.645Z,30.40
2022-08-09T18:59:26.595Z,30.50
2022-08-09T19:05:03.367Z,30.50
2022-08-09T19:10:24.731Z,30.60
2022-08-09T19:15:47.261Z,30.70
2022-08-09T19:21:10.639Z,30.80
2022-08-09T19:26:32.649Z,30.90
2022-08-09T19:31:59.875Z,31.00
2022-08-09T19:37:20.473Z,31.20
2022-08-09T19:42:43.781Z,31.40
2022-08-09T19:48:07.698Z,31.50
2022-08-09T19:53:30.784Z,31.70
2022-08-09T19:59:18.578Z,31.80
2022-08-09T20:04:47.550Z,31.90
2022-08-09T20:10:17.686Z,32.00
2022-08-09T20:16:38.340Z,32.20
2022-08-09T20:21:24.135Z,32.30
2022-08-09T20:27:01.110Z,32.40
2022-08-09T20:32:33.190Z,32.60
2022-08-09T20:38:20.416Z,32.80
2022-08-09T20:43:34.373Z,32.80
2022-08-09T20:48:54.487Z,32.90
2022-08-09T20:54:17.020Z,33.00
2022-08-09T21:00:19.346Z,33.10
2022-08-09T21:05:56.446Z,33.20
2022-08-09T21:10:57.221Z,33.30
2022-08-09T21:16:20.950Z,33.40
2022-08-09T21:21:56.416Z,33.40
2022-08-09T21:27:52.713Z,33.60
2022-08-09T21:32:57.896Z,33.70
2022-08-09T21:38:18.589Z,33.60
2022-08-09T21:43:56.766Z,33.70
2022-08-09T21:49:18.552Z,33.70
2022-08-09T21:54:38.711Z,33.80
2022-08-09T21:59:59.831Z,33.80
2022-08-09T22:05:23.153Z,33.80
2022-08-09T22:11:04.961Z,33.80
2022-08-09T22:16:24.094Z,33.90
2022-08-09T22:21:50.924Z,33.90
2022-08-09T22:27:11.482Z,33.90
2022-08-09T22:32:31.740Z,34.00
2022-08-09T22:38:06.948Z,33.90
2022-08-09T22:44:03.253Z,34.00
2022-08-09T22:49:10.040Z,34.00
2022-08-09T22:54:30.329Z,34.10
2022-08-09T22:59:55.565Z,34.10
2022-08-09T23:05:18.644Z,34.10
2022-08-09T23:10:43.651Z,34.00
2022-08-09T23:16:03.973Z,34.20
2022-08-09T23:21:26.104Z,34.10
2022-08-09T23:26:50.252Z,34.20
2022-08-09T23:32:10.385Z,34.30
2022-08-09T23:37:30.418Z,34.30
2022-08-09T23:42:50.480Z,34.40
2022-08-09T23:48:12.128Z,34.40
2022-08-09T23:53:37.705Z,34.60
2022-08-09T23:58:58.456Z,34.50
